createdAt,value
2018-12-17T00:01:49.845Z,33.17
2018-12-17T00:06:55.503Z,32.40
2018-12-17T00:11:58.966Z,32.87
2018-12-17T00:17:02.818Z,32.77
2018-12-17T00:22:06.587Z,33.13
2018-12-17T00:27:10.214Z,34.30
2018-12-17T00:32:13.721Z,33.70
2018-12-17T00:37:38.407Z,33.53
2018-12-17T00:42:42.194Z,33.40
2018-12-17T00:47:45.976Z,34.07
2018-12-17T00:52:50.029Z,32.60
2018-12-17T00:57:53.679Z,35.00
2018-12-17T01:02:57.273Z,35.80
2018-12-17T01:08:01.138Z,34.67
2018-12-17T01:13:04.625Z,32.70
2018-12-17T01:18:08.036Z,32.93
2018-12-17T01:23:11.499Z,34.53
2018-12-17T01:28:21.979Z,34.00
2018-12-17T01:33:20.530Z,33.80
2018-12-17T01:38:24.046Z,34.93
2018-12-17T01:43:27.680Z,34.17
2018-12-17T01:48:31.111Z,35.97
2018-12-17T01:53:34.677Z,33.33
2018-12-17T01:58:38.512Z,34.87
2018-12-17T02:03:41.929Z,33.73
2018-12-17T02:08:45.573Z,33.53
2018-12-17T02:13:49.208Z,34.77
2018-12-17T02:18:52.826Z,34.70
2018-12-17T02:23:56.312Z,34.07
2018-12-17T02:28:59.975Z,36.37
2018-12-17T02:34:03.898Z,35.70
2018-12-17T02:39:08.555Z,34.67
2018-12-17T02:44:12.450Z,34.63
2018-12-17T02:49:16.059Z,34.50
2018-12-17T02:54:19.458Z,36.13
2018-12-17T02:59:23.015Z,34.60
2018-12-17T03:04:26.502Z,35.47
2018-12-17T03:09:29.931Z,36.47
2018-12-17T03:14:33.311Z,37.13
2018-12-17T03:19:36.860Z,36.07
2018-12-17T03:24:40.247Z,37.07
2018-12-17T03:29:43.714Z,37.90
2018-12-17T03:34:47.236Z,38.57
2018-12-17T03:39:50.672Z,37.53
2018-12-17T03:44:54.131Z,39.57
2018-12-17T03:49:57.610Z,37.37
2018-12-17T03:55:01.059Z,38.53
2018-12-17T04:00:06.705Z,39.73
2018-12-17T04:05:10.143Z,38.63
2018-12-17T04:10:13.666Z,40.13
2018-12-17T04:15:17.104Z,41.30
2018-12-17T04:20:20.759Z,42.60
2018-12-17T04:25:24.175Z,39.53
2018-12-17T04:30:27.597Z,41.23
2018-12-17T04:35:30.957Z,42.53
2018-12-17T04:40:34.476Z,43.00
2018-12-17T04:45:37.948Z,40.80
2018-12-17T04:50:41.447Z,43.83
2018-12-17T04:55:45.057Z,43.73
2018-12-17T05:00:48.578Z,44.27
2018-12-17T05:05:52.058Z,44.57
2018-12-17T05:10:55.533Z,44.60
2018-12-17T05:15:58.937Z,43.70
2018-12-17T05:21:02.361Z,44.93
2018-12-17T05:26:05.935Z,46.50
2018-12-17T05:31:09.650Z,42.70
2018-12-17T05:36:13.156Z,47.20
2018-12-17T05:41:16.626Z,46.00
2018-12-17T05:46:20.167Z,46.83
2018-12-17T05:51:23.674Z,45.43
2018-12-17T05:56:27.160Z,44.83
2018-12-17T06:01:30.691Z,47.00
2018-12-17T06:06:34.241Z,45.83
2018-12-17T06:11:37.998Z,44.90
2018-12-17T06:16:41.564Z,45.37
2018-12-17T06:21:45.014Z,44.93
2018-12-17T06:26:48.431Z,43.67
2018-12-17T06:31:52.080Z,43.73
2018-12-17T06:36:55.592Z,44.40
2018-12-17T06:41:59.053Z,45.53
2018-12-17T06:47:02.547Z,44.80
2018-12-17T06:52:06.622Z,45.93
2018-12-17T06:57:10.147Z,44.90
2018-12-17T07:02:14.157Z,44.53
2018-12-17T07:07:17.743Z,46.90
2018-12-17T07:12:21.328Z,44.77
2018-12-17T07:17:24.776Z,42.70
2018-12-17T07:22:28.416Z,44.33
2018-12-17T07:27:33.084Z,42.13
2018-12-17T07:32:36.677Z,44.83
2018-12-17T07:37:40.707Z,44.63
2018-12-17T07:42:44.172Z,43.47
2018-12-17T07:47:47.722Z,44.93
2018-12-17T07:52:51.163Z,44.73
2018-12-17T07:57:54.734Z,45.43
2018-12-17T08:02:58.385Z,45.20
2018-12-17T08:08:01.981Z,44.63
2018-12-17T08:13:05.990Z,44.60
2018-12-17T08:18:20.941Z,46.13
2018-12-17T08:23:24.629Z,45.33
2018-12-17T08:28:28.334Z,48.13
2018-12-17T08:33:31.865Z,45.30
2018-12-17T08:38:35.470Z,46.73
2018-12-17T08:43:38.907Z,45.87
2018-12-17T08:48:42.345Z,42.23
2018-12-17T08:53:45.870Z,41.53
2018-12-17T08:58:49.409Z,41.03
2018-12-17T09:03:52.986Z,39.83
2018-12-17T09:08:56.474Z,39.70
2018-12-17T09:14:00.157Z,41.07
2018-12-17T09:19:03.874Z,40.70
2018-12-17T09:24:07.316Z,44.10
2018-12-17T09:29:10.940Z,40.27
2018-12-17T09:34:14.661Z,41.40
2018-12-17T09:39:19.176Z,40.93
2018-12-17T09:44:22.674Z,40.97
2018-12-17T09:49:26.604Z,40.60
2018-12-17T09:54:30.503Z,39.83
2018-12-17T09:59:33.977Z,41.80
2018-12-17T10:04:37.681Z,40.83
2018-12-17T10:09:41.364Z,43.37
2018-12-17T10:14:45.110Z,43.00
2018-12-17T10:19:48.760Z,44.13
2018-12-17T10:24:52.791Z,42.33
2018-12-17T10:29:57.318Z,42.43
2018-12-17T10:35:00.841Z,41.73
2018-12-17T10:40:06.321Z,39.97
2018-12-17T10:45:09.978Z,38.23
2018-12-17T10:50:14.571Z,39.63
2018-12-17T10:55:18.238Z,36.97
2018-12-17T11:00:27.340Z,38.90
2018-12-17T11:05:31.221Z,42.03
2018-12-17T11:10:34.727Z,38.97
2018-12-17T11:15:38.415Z,38.73
2018-12-17T11:20:41.870Z,42.40
2018-12-17T11:25:45.578Z,40.10
2018-12-17T11:30:49.188Z,40.23
2018-12-17T11:35:52.811Z,42.20
2018-12-17T11:40:57.360Z,42.80
2018-12-17T11:51:17.656Z,44.40
2018-12-17T11:57:31.565Z,42.97
2018-12-17T12:02:36.213Z,41.83
2018-12-17T12:07:39.753Z,43.47
2018-12-17T12:12:43.313Z,41.77
2018-12-17T12:17:47.079Z,41.40
2018-12-17T12:22:50.563Z,42.20
2018-12-17T12:27:54.100Z,42.13
2018-12-17T12:32:57.627Z,45.63
2018-12-17T12:38:01.211Z,42.43
2018-12-17T12:43:04.631Z,44.17
2018-12-17T12:48:08.047Z,42.07
2018-12-17T12:53:11.773Z,42.13
2018-12-17T12:58:15.789Z,43.03
2018-12-17T13:03:19.292Z,42.60
2018-12-17T13:08:22.922Z,39.77
2018-12-17T13:13:26.591Z,38.93
2018-12-17T13:18:30.127Z,40.20
2018-12-17T13:23:33.641Z,39.93
2018-12-17T13:28:37.270Z,41.10
2018-12-17T13:33:40.811Z,40.00
2018-12-17T13:38:44.430Z,41.00
2018-12-17T13:43:47.920Z,40.20
2018-12-17T13:48:51.926Z,41.00
2018-12-17T13:53:59.509Z,40.13
2018-12-17T13:59:03.143Z,40.33
2018-12-17T14:04:06.723Z,40.63
2018-12-17T14:09:10.361Z,41.00
2018-12-17T14:14:14.535Z,42.47
2018-12-17T14:19:24.312Z,42.30
2018-12-17T14:24:28.374Z,41.17
2018-12-17T14:29:33.430Z,40.63
2018-12-17T14:34:40.034Z,42.30
2018-12-17T14:39:44.989Z,41.53
2018-12-17T14:44:49.547Z,42.03
2018-12-17T14:49:54.573Z,43.07
2018-12-17T14:54:58.403Z,41.60
2018-12-17T15:00:02.122Z,41.07
2018-12-17T15:05:06.256Z,41.53
2018-12-17T15:10:11.208Z,39.53
2018-12-17T15:15:15.362Z,40.53
2018-12-17T15:20:19.374Z,38.57
2018-12-17T15:25:23.196Z,40.63
2018-12-17T15:30:26.821Z,39.87
2018-12-17T15:35:30.374Z,40.97
2018-12-17T15:40:34.129Z,39.77
2018-12-17T15:45:38.528Z,39.17
2018-12-17T15:50:42.794Z,38.80
2018-12-17T15:55:47.225Z,39.13
2018-12-17T16:00:51.802Z,38.43
2018-12-17T16:05:56.755Z,37.17
2018-12-17T16:11:01.733Z,38.13
2018-12-17T16:16:05.380Z,39.23
2018-12-17T16:21:10.821Z,39.13
2018-12-17T16:26:15.176Z,38.33
2018-12-17T16:31:19.295Z,42.37
2018-12-17T16:36:22.807Z,38.90
2018-12-17T16:41:26.270Z,39.33
2018-12-17T16:46:29.842Z,39.87
2018-12-17T16:51:33.494Z,41.03
2018-12-17T16:56:37.051Z,39.63
2018-12-17T17:01:40.839Z,38.90
2018-12-17T17:06:45.459Z,39.63
2018-12-17T17:11:49.092Z,40.77
2018-12-17T17:16:52.969Z,41.03
2018-12-17T17:21:56.905Z,40.93
2018-12-17T17:27:00.659Z,41.80
2018-12-17T17:32:04.082Z,39.83
2018-12-17T17:37:08.295Z,42.47
2018-12-17T17:42:11.926Z,41.13
2018-12-17T17:47:15.401Z,41.37
2018-12-17T17:52:18.871Z,42.70
2018-12-17T17:57:22.457Z,41.67
2018-12-17T18:02:25.969Z,42.87
2018-12-17T18:07:29.396Z,40.57
2018-12-17T18:12:32.898Z,40.33
2018-12-17T18:17:36.425Z,39.50
2018-12-17T18:22:40.031Z,40.90
2018-12-17T18:27:43.848Z,41.30
2018-12-17T18:32:47.397Z,42.33
2018-12-17T18:37:50.911Z,42.33
2018-12-17T18:42:54.418Z,41.53
2018-12-17T18:47:57.940Z,42.33
2018-12-17T18:53:01.366Z,44.77
2018-12-17T18:58:15.300Z,39.93
2018-12-17T19:03:18.874Z,42.50
2018-12-17T19:08:23.625Z,42.23
2018-12-17T19:13:27.499Z,40.53
2018-12-17T19:18:31.030Z,40.67
2018-12-17T19:23:34.708Z,39.93
2018-12-17T19:28:38.235Z,39.73
2018-12-17T19:33:41.874Z,40.77
2018-12-17T19:38:45.425Z,38.00
2018-12-17T19:43:49.018Z,41.83
2018-12-17T19:48:52.505Z,44.07
2018-12-17T19:53:56.077Z,43.73
2018-12-17T19:58:59.500Z,43.37
2018-12-17T20:04:02.947Z,43.30
2018-12-17T20:09:07.471Z,40.47
2018-12-17T20:14:13.082Z,43.60
2018-12-17T20:19:16.513Z,43.47
2018-12-17T20:24:19.974Z,40.77
2018-12-17T20:29:24.699Z,42.10
2018-12-17T20:34:28.402Z,41.83
2018-12-17T20:39:31.843Z,40.60
2018-12-17T20:44:35.398Z,41.93
2018-12-17T20:49:40.011Z,41.67
2018-12-17T20:54:43.532Z,44.47
2018-12-17T20:59:48.189Z,45.97
2018-12-17T21:04:51.697Z,45.07
2018-12-17T21:09:55.086Z,46.17
2018-12-17T21:14:58.568Z,46.30
2018-12-17T21:20:03.060Z,45.97
2018-12-17T21:25:06.943Z,46.73
2018-12-17T21:30:10.552Z,45.23
2018-12-17T21:35:14.132Z,46.77
2018-12-17T21:40:17.963Z,46.73
2018-12-17T21:45:22.532Z,46.43
2018-12-17T21:50:26.393Z,46.47
2018-12-17T21:55:30.414Z,47.53
2018-12-17T22:00:33.968Z,61.33
2018-12-17T22:05:37.449Z,49.77
2018-12-17T22:10:41.278Z,47.23
2018-12-17T22:15:45.179Z,47.07
2018-12-17T22:20:48.725Z,47.97
2018-12-17T22:25:52.217Z,49.97
2018-12-17T22:30:55.781Z,49.63
2018-12-17T22:35:59.343Z,49.37
2018-12-17T22:41:02.811Z,50.50
2018-12-17T22:46:06.463Z,46.13
2018-12-17T22:51:10.153Z,46.40
2018-12-17T22:56:13.735Z,45.57
2018-12-17T23:01:17.370Z,43.60
2018-12-17T23:06:20.770Z,44.03
2018-12-17T23:11:47.081Z,47.77
2018-12-17T23:17:07.728Z,48.73
2018-12-17T23:22:11.845Z,49.40
2018-12-17T23:27:17.395Z,49.23
2018-12-17T23:32:21.687Z,52.17
2018-12-17T23:37:25.037Z,52.03
2018-12-17T23:42:28.814Z,51.43
2018-12-17T23:47:47.353Z,51.00
2018-12-17T23:52:50.991Z,54.47
2018-12-17T23:57:54.482Z,51.60
